Time;durP1;ratioP1;P1;durP2;ratioP2;P2;SDS_P1;SDS_P2;PMS_P1;PMS_P2;Temp;Humidity;BMP_temperature;BMP_pressure;BME280_temperature;BME280_humidity;BME280_pressure;Samples;Min_cycle;Max_cycle;Signal;HPM_P1;HPM_P2
2021/05/11 00:00:30;;;;;;;;;;;11.00;69.20;;;;;;5056233;27;74405;-68
2021/05/11 00:02:56;;;;;;;;;;;11.00;69.10;;;;;;5053878;28;75872;-67
2021/05/11 00:05:22;;;;;;;;;;;11.00;69.20;;;;;;5055703;27;75164;-67
2021/05/11 00:07:48;;;;;;;;;;;11.00;69.40;;;;;;5054864;27;75095;-68
2021/05/11 00:10:14;;;;;;;;;;;10.90;69.40;;;;;;5055633;27;75072;-69
2021/05/11 00:12:39;;;;;;;;;;;10.90;69.60;;;;;;5053739;28;77460;-69
2021/05/11 00:15:05;;;;;;;;;;;10.90;69.60;;;;;;5053864;28;77101;-68
2021/05/11 00:17:31;;;;;;;;;;;10.90;69.30;;;;;;5055493;27;75231;-69
2021/05/11 00:19:59;;;;;;;;;;;10.90;68.40;;;;;;5053670;28;75151;-67
2021/05/11 00:22:24;;;;;;;;;;;10.90;67.80;;;;;;5053485;28;78092;-72
2021/05/11 00:24:50;;;;;;;;;;;10.90;67.60;;;;;;5055351;27;75023;-71
2021/05/11 00:27:15;;;;;;;;;;;10.90;67.10;;;;;;5053731;28;76169;-70
2021/05/11 00:29:41;;;;;;;;;;;10.90;67.00;;;;;;5053685;28;75980;-68
2021/05/11 00:32:07;;;;;;;;;;;10.90;66.30;;;;;;5053639;28;77571;-68
2021/05/11 00:34:32;;;;;;;;;;;10.90;66.30;;;;;;5053725;28;75375;-68
2021/05/11 00:36:58;;;;;;;;;;;10.90;64.90;;;;;;5053061;28;76547;-70
2021/05/11 00:39:23;;;;;;;;;;;10.90;65.50;;;;;;5055407;27;74474;-68
2021/05/11 00:41:49;;;;;;;;;;;10.90;64.70;;;;;;5053085;28;77131;-69
2021/05/11 00:44:18;;;;;;;;;;;10.90;63.60;;;;;;5054899;27;75192;-68
2021/05/11 00:46:53;;;;;;;;;;;10.90;64.30;;;;;;5052557;28;77654;-70
2021/05/11 00:49:19;;;;;;;;;;;10.90;64.10;;;;;;5053005;28;77618;-67
2021/05/11 00:51:44;;;;;;;;;;;10.90;64.30;;;;;;5053154;28;75340;-72
2021/05/11 00:54:10;;;;;;;;;;;10.90;63.50;;;;;;5054547;27;75630;-68
2021/05/11 00:56:36;;;;;;;;;;;10.90;63.80;;;;;;5054842;27;75071;-67
2021/05/11 00:59:02;;;;;;;;;;;10.90;63.30;;;;;;5053008;28;75722;-67
2021/05/11 01:01:28;;;;;;;;;;;10.90;63.40;;;;;;5054650;27;75299;-70
2021/05/11 01:03:53;;;;;;;;;;;10.90;62.80;;;;;;5054426;27;75073;-69
2021/05/11 01:06:19;;;;;;;;;;;10.90;62.40;;;;;;5052886;28;78521;-65
2021/05/11 01:08:44;;;;;;;;;;;10.90;62.70;;;;;;5052034;27;75697;-66
2021/05/11 01:11:10;;;;;;;;;;;10.90;62.00;;;;;;5053986;27;75146;-68
2021/05/11 01:13:37;;;;;;;;;;;10.90;61.90;;;;;;5053232;28;94901;-69
2021/05/11 01:16:03;;;;;;;;;;;10.90;61.30;;;;;;5052815;28;78180;-69
2021/05/11 01:18:32;;;;;;;;;;;10.90;61.40;;;;;;5052944;28;77473;-69
2021/05/11 01:21:03;;;;;;;;;;;10.90;61.00;;;;;;5054356;27;75217;-69
2021/05/11 01:23:58;;;;;;;;;;;10.90;61.10;;;;;;5052304;28;77066;-67
2021/05/11 01:51:23;;;;;;;;;;;10.80;60.80;;;;;;5051421;27;75143;-70
2021/05/11 01:53:44;;;;;;;;;;;10.80;60.60;;;;;;5047094;28;75116;-69
2021/05/11 02:18:20;;;;;;;;;;;10.50;58.40;;;;;;5053638;28;74954;-66
2021/05/11 02:23:30;;;;;;;;;;;10.50;58.50;;;;;;5053711;28;74900;-64
2021/05/11 02:25:56;;;;;;;;;;;10.50;58.70;;;;;;5053012;28;75304;-64
2021/05/11 02:28:23;;;;;;;;;;;10.50;58.80;;;;;;5035015;28;77103;-64
2021/05/11 02:30:49;;;;;;;;;;;10.50;58.30;;;;;;5052883;28;75242;-64
2021/05/11 02:33:14;;;;;;;;;;;10.50;58.50;;;;;;5053353;28;75095;-67
2021/05/11 02:35:40;;;;;;;;;;;10.50;56.40;;;;;;5053879;28;74447;-64
2021/05/11 02:38:05;;;;;;;;;;;10.40;57.20;;;;;;5052848;28;75331;-65
2021/05/11 02:40:31;;;;;;;;;;;10.40;57.00;;;;;;5034763;28;77837;-64
2021/05/11 02:43:03;;;;;;;;;;;10.50;57.10;;;;;;5052772;28;74965;-67
2021/05/11 02:45:31;;;;;;;;;;;10.50;57.10;;;;;;5053234;28;75286;-68
2021/05/11 02:47:56;;;;;;;;;;;10.50;56.80;;;;;;5033907;28;77597;-65
2021/05/11 02:50:24;;;;;;;;;;;10.40;56.00;;;;;;5034277;28;75963;-66
2021/05/11 02:52:50;;;;;;;;;;;10.50;56.30;;;;;;5034313;28;74760;-67
2021/05/11 02:55:16;;;;;;;;;;;10.40;56.60;;;;;;5033686;28;77482;-69
2021/05/11 02:57:42;;;;;;;;;;;10.40;56.30;;;;;;5033899;28;75456;-69
2021/05/11 03:00:09;;;;;;;;;;;10.40;56.20;;;;;;5033487;28;75196;-71
2021/05/11 03:02:35;;;;;;;;;;;10.40;56.50;;;;;;5053140;28;74474;-69
2021/05/11 03:05:00;;;;;;;;;;;10.40;56.50;;;;;;5034028;28;78412;-72
2021/05/11 03:07:26;;;;;;;;;;;10.40;56.50;;;;;;5052503;28;74642;-70
2021/05/11 03:09:52;;;;;;;;;;;10.40;56.50;;;;;;5034113;28;74700;-68
2021/05/11 03:12:18;;;;;;;;;;;10.40;56.60;;;;;;5052313;28;75467;-71
2021/05/11 03:14:44;;;;;;;;;;;10.40;57.00;;;;;;5033817;28;75273;-74
2021/05/11 03:17:10;;;;;;;;;;;10.50;56.50;;;;;;5033896;28;77298;-69
2021/05/11 03:19:35;;;;;;;;;;;10.40;56.60;;;;;;5052437;28;74469;-74
2021/05/11 03:22:01;;;;;;;;;;;10.40;56.00;;;;;;5033549;28;74759;-72
2021/05/11 03:24:26;;;;;;;;;;;10.50;56.60;;;;;;5034046;28;75439;-73
2021/05/11 03:26:52;;;;;;;;;;;10.40;56.10;;;;;;5052756;28;74545;-71
2021/05/11 03:29:18;;;;;;;;;;;10.40;56.40;;;;;;5052769;28;75143;-72
2021/05/11 03:31:44;;;;;;;;;;;10.40;56.60;;;;;;5033701;28;74907;-70
2021/05/11 03:34:09;;;;;;;;;;;10.40;56.80;;;;;;5033037;28;78038;-68
2021/05/11 03:36:35;;;;;;;;;;;10.30;56.80;;;;;;5033930;28;75363;-66
2021/05/11 03:39:05;;;;;;;;;;;10.20;57.00;;;;;;5052267;28;75285;-68
2021/05/11 03:41:36;;;;;;;;;;;10.20;57.10;;;;;;5033721;28;76291;-65
2021/05/11 03:44:09;;;;;;;;;;;10.20;57.30;;;;;;5051976;28;75339;-63
2021/05/11 03:46:36;;;;;;;;;;;10.10;56.90;;;;;;5033543;28;77431;-66
2021/05/11 03:49:02;;;;;;;;;;;10.10;57.00;;;;;;5032681;28;76770;-71
2021/05/11 03:51:28;;;;;;;;;;;10.10;57.40;;;;;;5033232;28;77184;-71
2021/05/11 03:53:54;;;;;;;;;;;10.10;57.30;;;;;;5051818;28;74476;-69
2021/05/11 03:56:19;;;;;;;;;;;10.10;57.90;;;;;;5033334;28;77720;-69
2021/05/11 03:58:45;;;;;;;;;;;10.00;58.70;;;;;;5033334;28;77458;-70
2021/05/11 04:01:11;;;;;;;;;;;10.00;59.20;;;;;;5052536;28;74418;-71
2021/05/11 04:03:36;;;;;;;;;;;10.00;59.50;;;;;;5051871;28;74915;-67
2021/05/11 04:06:03;;;;;;;;;;;9.90;60.20;;;;;;5051854;28;75174;-71
2021/05/11 04:11:06;;;;;;;;;;;9.90;62.00;;;;;;5048671;28;75141;-72
2021/05/11 04:16:17;;;;;;;;;;;9.80;63.70;;;;;;5048815;28;75108;-69
2021/05/11 04:18:43;;;;;;;;;;;9.70;63.80;;;;;;5052293;28;75187;-71
2021/05/11 04:21:09;;;;;;;;;;;9.70;64.40;;;;;;5033359;28;75478;-71
2021/05/11 04:23:34;;;;;;;;;;;9.70;64.30;;;;;;5033315;28;77992;-69
2021/05/11 04:26:00;;;;;;;;;;;9.70;64.40;;;;;;5051747;28;74454;-71
2021/05/11 04:28:26;;;;;;;;;;;9.70;64.30;;;;;;5033342;28;76441;-70
2021/05/11 04:30:52;;;;;;;;;;;9.70;64.60;;;;;;5033596;28;77372;-72
2021/05/11 04:33:17;;;;;;;;;;;9.70;64.60;;;;;;5052170;28;75255;-72
2021/05/11 04:35:43;;;;;;;;;;;9.70;65.00;;;;;;5033174;28;76315;-68
2021/05/11 04:38:09;;;;;;;;;;;9.60;65.60;;;;;;5051612;28;75220;-72
2021/05/11 04:40:34;;;;;;;;;;;9.60;66.00;;;;;;5033433;28;76983;-70
2021/05/11 04:43:00;;;;;;;;;;;9.60;66.00;;;;;;5033039;28;75534;-71
2021/05/11 04:45:27;;;;;;;;;;;9.60;66.10;;;;;;5054158;27;74426;-72
2021/05/11 04:47:55;;;;;;;;;;;9.60;66.20;;;;;;5036584;28;76340;-71
2021/05/11 04:50:22;;;;;;;;;;;9.50;66.10;;;;;;5055029;28;75325;-70
2021/05/11 04:52:48;;;;;;;;;;;9.60;66.20;;;;;;5036631;28;76782;-71
2021/05/11 04:55:14;;;;;;;;;;;9.50;66.50;;;;;;5035762;28;77212;-71
2021/05/11 04:57:40;;;;;;;;;;;9.50;67.10;;;;;;5055147;28;75202;-70
2021/05/11 05:00:07;;;;;;;;;;;9.50;67.10;;;;;;5054935;28;75074;-69
2021/05/11 05:02:34;;;;;;;;;;;9.50;67.60;;;;;;5036308;28;77452;-69
2021/05/11 05:05:00;;;;;;;;;;;9.40;67.30;;;;;;5054939;28;75208;-69
2021/05/11 05:07:25;;;;;;;;;;;9.40;67.50;;;;;;5054243;28;75096;-67
2021/05/11 05:09:51;;;;;;;;;;;9.40;67.30;;;;;;5054810;28;75386;-64
2021/05/11 05:12:16;;;;;;;;;;;9.40;67.00;;;;;;5054759;28;75894;-67
2021/05/11 05:14:42;;;;;;;;;;;9.40;67.10;;;;;;5054778;28;74467;-66
2021/05/11 05:17:08;;;;;;;;;;;9.40;67.20;;;;;;5054747;28;74441;-70
2021/05/11 05:19:36;;;;;;;;;;;9.40;67.20;;;;;;5054826;28;74425;-70
2021/05/11 05:22:03;;;;;;;;;;;9.40;67.20;;;;;;5035800;28;74517;-67
2021/05/11 05:25:10;;;;;;;;;;;9.40;67.30;;;;;;5035757;28;76561;-68
2021/05/11 05:29:46;;;;;;;;;;;9.40;67.50;;;;;;5053107;28;74789;-65
2021/05/11 05:32:12;;;;;;;;;;;9.40;67.60;;;;;;5036033;28;75629;-66
2021/05/11 05:34:37;;;;;;;;;;;9.40;67.70;;;;;;5035321;28;77534;-70
2021/05/11 05:37:03;;;;;;;;;;;9.40;67.80;;;;;;5032712;28;75712;-71
2021/05/11 05:39:36;;;;;;;;;;;9.50;67.20;;;;;;5053936;28;75343;-73
2021/05/11 05:42:02;;;;;;;;;;;9.50;66.60;;;;;;5037890;28;77341;-66
2021/05/11 05:44:28;;;;;;;;;;;9.60;65.90;;;;;;5051139;28;75210;-66
2021/05/11 05:46:53;;;;;;;;;;;9.70;65.00;;;;;;5034956;28;77832;-68
2021/05/11 05:49:19;;;;;;;;;;;9.70;64.20;;;;;;5035495;28;75875;-69
2021/05/11 05:51:48;;;;;;;;;;;9.80;63.40;;;;;;5053467;28;75822;-72
2021/05/11 05:54:14;;;;;;;;;;;9.90;62.20;;;;;;5031851;28;76901;-73
2021/05/11 05:56:39;;;;;;;;;;;10.00;59.60;;;;;;5033912;28;75714;-68
2021/05/11 05:59:05;;;;;;;;;;;10.00;58.70;;;;;;5054074;28;75243;-73
2021/05/11 06:01:30;;;;;;;;;;;10.10;59.00;;;;;;5054145;28;75163;-73
2021/05/11 06:04:04;;;;;;;;;;;10.10;58.50;;;;;;5034894;28;76148;-72
2021/05/11 06:06:29;;;;;;;;;;;10.20;57.50;;;;;;5053592;28;74472;-69
2021/05/11 06:08:57;;;;;;;;;;;10.20;58.30;;;;;;5050607;28;75915;-71
2021/05/11 06:11:39;;;;;;;;;;;10.30;57.30;;;;;;5032989;28;75292;-71
2021/05/11 06:19:15;;;;;;;;;;;10.40;55.60;;;;;;5054080;28;74435;-72
2021/05/11 06:21:40;;;;;;;;;;;10.40;55.40;;;;;;5034693;28;78072;-71
2021/05/11 06:24:07;;;;;;;;;;;10.40;54.60;;;;;;5052729;28;74600;-73
2021/05/11 06:26:32;;;;;;;;;;;10.50;54.20;;;;;;5053186;28;75557;-72
2021/05/11 06:29:00;;;;;;;;;;;10.60;54.20;;;;;;5035109;28;75417;-71
2021/05/11 06:31:26;;;;;;;;;;;10.60;54.40;;;;;;5035524;28;75856;-77
2021/05/11 06:33:52;;;;;;;;;;;10.70;53.70;;;;;;5034240;28;76596;-75
2021/05/11 06:36:17;;;;;;;;;;;10.70;54.30;;;;;;5053790;28;74475;-75
2021/05/11 06:38:43;;;;;;;;;;;10.80;52.90;;;;;;5034820;28;75571;-81
2021/05/11 06:41:10;;;;;;;;;;;10.70;53.40;;;;;;5053569;28;74868;-77
2021/05/11 06:43:36;;;;;;;;;;;10.80;53.30;;;;;;5032889;27;75854;-75
2021/05/11 06:48:43;;;;;;;;;;;10.90;54.20;;;;;;5050156;28;75104;-79
2021/05/11 06:53:39;;;;;;;;;;;11.00;53.20;;;;;;5047578;28;75150;-75
2021/05/11 06:56:07;;;;;;;;;;;11.10;51.30;;;;;;5033985;28;75456;-78
2021/05/11 06:58:33;;;;;;;;;;;11.10;52.50;;;;;;5034781;28;75699;-74
2021/05/11 07:00:58;;;;;;;;;;;11.20;50.60;;;;;;5053052;28;75112;-79
2021/05/11 07:03:24;;;;;;;;;;;11.20;49.70;;;;;;5051764;28;75680;-75
2021/05/11 07:05:51;;;;;;;;;;;11.10;50.30;;;;;;5034059;28;76356;-74
2021/05/11 07:08:26;;;;;;;;;;;11.20;49.80;;;;;;5031771;28;76337;-73
2021/05/11 07:10:58;;;;;;;;;;;11.20;50.50;;;;;;5034348;28;75135;-75
2021/05/11 07:13:23;;;;;;;;;;;11.20;50.70;;;;;;5050234;28;75209;-78
2021/05/11 07:15:50;;;;;;;;;;;11.20;50.40;;;;;;5051485;28;75489;-78
2021/05/11 07:18:19;;;;;;;;;;;11.30;49.80;;;;;;5034054;28;77107;-75
2021/05/11 07:20:49;;;;;;;;;;;11.30;50.60;;;;;;5034609;28;75470;-77
2021/05/11 07:23:19;;;;;;;;;;;11.40;50.30;;;;;;5034181;28;75382;-80
2021/05/11 07:28:35;;;;;;;;;;;11.50;49.80;;;;;;5049388;28;76264;-71
2021/05/11 07:31:01;;;;;;;;;;;11.60;49.70;;;;;;5052776;28;75671;-80
2021/05/11 07:33:32;;;;;;;;;;;11.60;48.70;;;;;;5052572;28;75384;-75
2021/05/11 07:35:58;;;;;;;;;;;11.50;48.70;;;;;;5034363;28;74690;-74
2021/05/11 07:38:25;;;;;;;;;;;11.50;49.60;;;;;;5052372;28;75500;-79
2021/05/11 07:40:51;;;;;;;;;;;11.50;48.70;;;;;;5052624;28;75189;-79
2021/05/11 07:43:17;;;;;;;;;;;11.70;48.20;;;;;;5052612;28;74969;-76
2021/05/11 07:46:06;;;;;;;;;;;11.70;47.80;;;;;;5033517;28;77212;-76
2021/05/11 08:04:31;;;;;;;;;;;12.50;45.50;;;;;;5051582;28;74870;-78
2021/05/11 08:10:09;;;;;;;;;;;12.70;45.20;;;;;;5052272;28;74968;-69
2021/05/11 08:28:43;;;;;;;;;;;13.70;43.50;;;;;;5055087;28;74991;-69
2021/05/11 08:31:08;;;;;;;;;;;13.80;44.00;;;;;;5055280;28;74417;-70
2021/05/11 08:33:34;;;;;;;;;;;13.90;43.50;;;;;;5035332;28;76366;-66
2021/05/11 08:36:00;;;;;;;;;;;14.20;44.60;;;;;;5054989;28;74640;-65
2021/05/11 08:38:26;;;;;;;;;;;14.50;43.50;;;;;;5036199;28;75016;-70
2021/05/11 08:40:51;;;;;;;;;;;14.80;42.00;;;;;;5036706;28;76286;-68
2021/05/11 08:43:30;;;;;;;;;;;14.90;42.30;;;;;;5054832;28;75061;-69
2021/05/11 08:45:58;;;;;;;;;;;14.70;42.40;;;;;;5036329;28;76365;-70
2021/05/11 08:48:24;;;;;;;;;;;14.80;42.10;;;;;;5036692;28;78698;-70
2021/05/11 08:50:57;;;;;;;;;;;14.80;41.80;;;;;;5044024;28;74736;-68
2021/05/11 09:29:08;;;;;;;;;;;15.00;39.50;;;;;;5051132;28;75178;-68
2021/05/11 09:34:22;;;;;;;;;;;15.10;40.00;;;;;;5049668;28;74761;-69
2021/05/11 10:47:59;;;;;;;;;;;17.90;35.10;;;;;;5049595;28;74881;-68
2021/05/11 10:50:48;;;;;;;;;;;17.90;34.10;;;;;;5033087;28;77775;-68
2021/05/11 10:53:32;;;;;;;;;;;18.40;33.70;;;;;;5034050;28;77019;-68
2021/05/11 10:56:16;;;;;;;;;;;18.60;33.30;;;;;;5051460;28;75343;-72
2021/05/11 10:59:00;;;;;;;;;;;18.10;32.60;;;;;;5051492;28;75858;-70
2021/05/11 11:01:32;;;;;;;;;;;17.60;33.80;;;;;;5048962;28;75270;-68
2021/05/11 11:04:14;;;;;;;;;;;17.30;33.80;;;;;;5051059;27;74659;-66
2021/05/11 11:07:07;;;;;;;;;;;17.10;34.30;;;;;;5032042;28;75395;-68
2021/05/11 11:09:34;;;;;;;;;;;17.20;35.10;;;;;;5030752;28;74939;-68
2021/05/11 11:12:00;;;;;;;;;;;18.10;33.60;;;;;;5032030;28;76810;-68
2021/05/11 11:14:33;;;;;;;;;;;19.20;31.70;;;;;;5049220;28;75845;-68
2021/05/11 11:17:00;;;;;;;;;;;20.00;30.30;;;;;;5052341;28;75246;-66
2021/05/11 11:19:25;;;;;;;;;;;20.90;31.20;;;;;;5034324;28;75355;-67
2021/05/11 11:24:26;;;;;;;;;;;23.30;27.60;;;;;;5048611;28;75866;-66
2021/05/11 11:26:52;;;;;;;;;;;24.50;25.40;;;;;;5033403;28;77604;-67
2021/05/11 11:29:20;;;;;;;;;;;23.40;25.00;;;;;;5051844;28;75377;-67
2021/05/11 11:31:45;;;;;;;;;;;22.10;28.90;;;;;;5033415;28;75415;-66
2021/05/11 11:34:18;;;;;;;;;;;21.60;27.80;;;;;;5033115;28;77124;-66
2021/05/11 11:37:00;;;;;;;;;;;20.90;28.50;;;;;;5052418;28;74459;-67
2021/05/11 11:39:27;;;;;;;;;;;23.50;27.00;;;;;;5034051;28;76334;-67
2021/05/11 11:41:54;;;;;;;;;;;25.80;25.00;;;;;;5051996;28;75185;-67
2021/05/11 11:44:21;;;;;;;;;;;25.40;23.80;;;;;;5033808;28;76468;-68
2021/05/11 11:46:57;;;;;;;;;;;25.80;23.70;;;;;;5051932;28;75723;-66
2021/05/11 11:49:28;;;;;;;;;;;26.50;23.10;;;;;;5051810;28;75373;-67
2021/05/11 11:52:05;;;;;;;;;;;26.80;23.80;;;;;;5052528;28;75793;-67
2021/05/11 11:54:38;;;;;;;;;;;27.40;21.40;;;;;;5034879;28;77069;-67
2021/05/11 11:59:33;;;;;;;;;;;28.50;21.30;;;;;;5052668;28;75136;-67
2021/05/11 12:02:00;;;;;;;;;;;25.80;22.50;;;;;;5053448;28;75279;-67
2021/05/11 12:04:26;;;;;;;;;;;25.70;24.70;;;;;;5052433;28;75135;-68
2021/05/11 12:06:52;;;;;;;;;;;28.90;23.40;;;;;;5058156;27;75266;-69
2021/05/11 12:09:19;;;;;;;;;;;31.50;20.40;;;;;;5035712;28;78720;-68
2021/05/11 12:11:45;;;;;;;;;;;33.00;19.10;;;;;;5036547;28;76839;-67
2021/05/11 12:14:12;;;;;;;;;;;34.30;17.30;;;;;;5036605;28;78306;-66
2021/05/11 12:16:41;;;;;;;;;;;35.20;17.50;;;;;;5037243;28;78003;-67
2021/05/11 12:22:06;;;;;;;;;;;34.40;16.00;;;;;;5052492;28;74514;-70
2021/05/11 12:24:40;;;;;;;;;;;32.70;17.70;;;;;;5055207;28;75075;-67
2021/05/11 12:27:10;;;;;;;;;;;31.80;19.60;;;;;;5055718;28;75128;-69
2021/05/11 12:29:35;;;;;;;;;;;31.50;19.30;;;;;;5036387;28;77481;-70
2021/05/11 12:32:01;;;;;;;;;;;33.00;18.20;;;;;;5055513;28;75296;-70
2021/05/11 12:34:26;;;;;;;;;;;34.40;18.30;;;;;;5055066;28;75340;-69
2021/05/11 12:36:58;;;;;;;;;;;33.50;18.80;;;;;;5055639;28;75193;-68
2021/05/11 12:39:46;;;;;;;;;;;31.70;19.80;;;;;;5036586;28;77787;-69
2021/05/11 12:42:22;;;;;;;;;;;29.70;21.70;;;;;;5055296;28;75235;-69
2021/05/11 12:45:06;;;;;;;;;;;29.10;22.40;;;;;;5055259;28;75734;-69
2021/05/11 12:47:42;;;;;;;;;;;32.30;17.60;;;;;;5036531;28;77181;-69
2021/05/11 12:50:11;;;;;;;;;;;32.20;18.60;;;;;;5055810;28;74462;-68
2021/05/11 12:52:37;;;;;;;;;;;34.20;16.40;;;;;;5036334;28;75825;-69
2021/05/11 12:55:05;;;;;;;;;;;32.80;16.70;;;;;;5055026;28;74493;-68
2021/05/11 12:57:34;;;;;;;;;;;31.30;19.30;;;;;;5050805;28;75655;-67
2021/05/11 13:13:51;;;;;;;;;;;35.90;15.80;;;;;;5055475;28;74996;-69
2021/05/11 13:16:29;;;;;;;;;;;35.70;15.50;;;;;;5054732;28;75596;-74
2021/05/11 13:27:15;;;;;;;;;;;34.10;16.80;;;;;;5055232;28;74961;-68
2021/05/11 13:32:13;;;;;;;;;;;34.50;16.50;;;;;;5052456;28;74581;-69
2021/05/11 13:34:39;;;;;;;;;;;34.50;15.00;;;;;;5054922;28;75256;-71
2021/05/11 13:37:05;;;;;;;;;;;32.90;17.80;;;;;;5036131;28;74600;-74
2021/05/11 13:39:30;;;;;;;;;;;33.60;16.60;;;;;;5036009;28;77492;-69
2021/05/11 13:41:56;;;;;;;;;;;35.10;16.10;;;;;;5035707;28;77350;-70
2021/05/11 13:44:23;;;;;;;;;;;33.40;17.50;;;;;;5054305;28;75129;-69
2021/05/11 13:46:48;;;;;;;;;;;31.80;16.60;;;;;;5036021;28;77739;-69
2021/05/11 13:49:18;;;;;;;;;;;29.70;18.90;;;;;;5054736;28;74398;-73
2021/05/11 13:51:43;;;;;;;;;;;28.70;19.00;;;;;;5054534;28;75529;-70
2021/05/11 13:54:11;;;;;;;;;;;28.10;20.10;;;;;;5054253;28;75230;-71
2021/05/11 14:04:24;;;;;;;;;;;37.20;14.20;;;;;;5050945;28;75118;-69
2021/05/11 14:06:50;;;;;;;;;;;35.80;15.10;;;;;;5034673;28;76265;-71
2021/05/11 14:09:16;;;;;;;;;;;32.10;16.10;;;;;;5035337;28;75165;-69
2021/05/11 14:11:42;;;;;;;;;;;29.20;19.50;;;;;;5035079;28;77637;-71
2021/05/11 14:14:09;;;;;;;;;;;28.50;20.00;;;;;;5035344;28;75890;-71
2021/05/11 14:16:35;;;;;;;;;;;31.00;19.10;;;;;;5035445;28;76645;-71
2021/05/11 14:19:01;;;;;;;;;;;31.40;17.00;;;;;;5035211;28;75502;-72
2021/05/11 14:21:27;;;;;;;;;;;29.30;18.20;;;;;;5054052;28;75580;-71
2021/05/11 14:23:55;;;;;;;;;;;27.30;20.20;;;;;;5034283;28;75663;-73
2021/05/11 14:26:21;;;;;;;;;;;26.40;21.90;;;;;;5035571;28;75767;-73
2021/05/11 14:28:47;;;;;;;;;;;27.40;20.40;;;;;;5053781;28;75209;-73
2021/05/11 14:31:12;;;;;;;;;;;29.60;18.30;;;;;;5035710;28;75559;-72
2021/05/11 14:33:38;;;;;;;;;;;30.80;17.50;;;;;;5053951;28;75235;-71
2021/05/11 14:36:04;;;;;;;;;;;31.80;17.30;;;;;;5034777;28;76825;-71
2021/05/11 14:38:30;;;;;;;;;;;30.50;17.60;;;;;;5035477;28;77931;-72
2021/05/11 14:41:01;;;;;;;;;;;31.10;17.70;;;;;;5053549;28;75043;-75
2021/05/11 14:43:27;;;;;;;;;;;33.30;16.90;;;;;;5045709;28;75300;-75
2021/05/11 14:45:53;;;;;;;;;;;34.80;15.10;;;;;;5022787;28;75227;-75
2021/05/11 14:48:18;;;;;;;;;;;35.70;15.30;;;;;;4994364;28;77264;-76
2021/05/11 14:50:44;;;;;;;;;;;33.90;16.20;;;;;;5009982;28;75330;-73
2021/05/11 14:53:10;;;;;;;;;;;31.60;18.30;;;;;;5028373;28;77078;-70
2021/05/11 14:55:36;;;;;;;;;;;31.10;17.30;;;;;;4995058;28;76996;-76
2021/05/11 14:58:01;;;;;;;;;;;29.60;19.00;;;;;;4999558;28;76930;-72
2021/05/11 15:00:27;;;;;;;;;;;28.10;19.20;;;;;;5006275;28;78050;-71
2021/05/11 15:02:52;;;;;;;;;;;26.40;21.10;;;;;;5033440;28;75112;-70
2021/05/11 15:05:18;;;;;;;;;;;25.20;21.80;;;;;;5033165;28;75241;-72
2021/05/11 15:07:48;;;;;;;;;;;24.90;22.70;;;;;;5044183;27;77032;-69
2021/05/11 15:10:13;;;;;;;;;;;25.00;22.90;;;;;;5073229;27;75111;-72
2021/05/11 15:12:42;;;;;;;;;;;25.20;22.60;;;;;;5055105;27;75818;-75
2021/05/11 15:15:13;;;;;;;;;;;24.90;22.50;;;;;;5054869;27;77487;-71
2021/05/11 15:20:11;;;;;;;;;;;23.90;22.70;;;;;;5070253;27;75221;-71
2021/05/11 15:22:36;;;;;;;;;;;23.60;23.50;;;;;;5054439;27;76236;-70
2021/05/11 15:25:02;;;;;;;;;;;23.50;24.00;;;;;;5073263;27;75447;-71
2021/05/11 15:27:28;;;;;;;;;;;23.60;24.20;;;;;;5051570;27;77013;-68
2021/05/11 15:29:54;;;;;;;;;;;23.40;24.00;;;;;;5071793;27;75406;-72
2021/05/11 15:32:38;;;;;;;;;;;23.20;24.40;;;;;;5053891;27;77887;-72
2021/05/11 15:35:05;;;;;;;;;;;22.90;24.80;;;;;;5053436;27;77610;-70
2021/05/11 15:37:32;;;;;;;;;;;22.80;24.90;;;;;;5072481;27;75068;-69
2021/05/11 15:39:58;;;;;;;;;;;22.60;25.00;;;;;;5053301;27;78339;-69
2021/05/11 15:42:23;;;;;;;;;;;22.50;25.40;;;;;;5072739;27;75135;-72
2021/05/11 15:44:49;;;;;;;;;;;22.50;25.60;;;;;;5054145;27;76894;-70
2021/05/11 15:47:15;;;;;;;;;;;22.50;25.60;;;;;;5054211;27;75785;-71
2021/05/11 15:49:44;;;;;;;;;;;22.50;25.90;;;;;;5054133;27;77534;-72
2021/05/11 15:52:10;;;;;;;;;;;22.60;25.70;;;;;;5054247;27;77003;-67
2021/05/11 15:54:35;;;;;;;;;;;22.50;25.60;;;;;;5053715;27;75123;-71
2021/05/11 15:57:01;;;;;;;;;;;22.30;25.80;;;;;;5053704;27;75221;-72
2021/05/11 15:59:27;;;;;;;;;;;22.10;26.40;;;;;;5054198;27;74695;-69
2021/05/11 16:01:52;;;;;;;;;;;22.50;26.50;;;;;;5072423;27;75356;-70
2021/05/11 16:04:18;;;;;;;;;;;23.30;25.30;;;;;;5054028;27;77596;-70
2021/05/11 16:06:43;;;;;;;;;;;23.50;25.00;;;;;;5072360;27;75213;-70
2021/05/11 16:09:09;;;;;;;;;;;24.40;24.50;;;;;;5048591;27;78362;-72
2021/05/11 16:11:34;;;;;;;;;;;25.10;23.50;;;;;;5078016;27;76912;-71
2021/05/11 16:14:00;;;;;;;;;;;25.10;23.40;;;;;;5048729;28;75334;-70
2021/05/11 16:16:26;;;;;;;;;;;25.00;23.80;;;;;;5034185;28;76939;-70
2021/05/11 16:18:52;;;;;;;;;;;24.80;23.80;;;;;;5052172;28;74502;-69
2021/05/11 16:21:17;;;;;;;;;;;24.50;23.70;;;;;;5033739;28;74679;-70
2021/05/11 16:23:45;;;;;;;;;;;24.40;24.40;;;;;;5051926;28;75193;-71
2021/05/11 16:26:10;;;;;;;;;;;25.20;24.10;;;;;;5033868;28;78061;-70
2021/05/11 16:28:36;;;;;;;;;;;26.30;23.10;;;;;;5052227;28;74999;-71
2021/05/11 16:31:03;;;;;;;;;;;26.40;23.00;;;;;;5063366;27;75633;-74
2021/05/11 16:33:28;;;;;;;;;;;25.80;23.50;;;;;;5052212;28;75137;-69
2021/05/11 16:35:54;;;;;;;;;;;25.00;24.00;;;;;;5032713;28;77452;-71
2021/05/11 16:38:20;;;;;;;;;;;24.00;24.60;;;;;;5033706;28;78013;-70
2021/05/11 16:40:46;;;;;;;;;;;22.90;25.20;;;;;;5053870;27;76798;-71
2021/05/11 16:43:12;;;;;;;;;;;22.20;26.30;;;;;;5036732;28;76614;-72
2021/05/11 16:45:38;;;;;;;;;;;21.80;26.80;;;;;;5071089;27;74651;-72
2021/05/11 16:48:05;;;;;;;;;;;21.50;27.30;;;;;;5036048;28;75913;-72
2021/05/11 16:50:32;;;;;;;;;;;21.60;27.40;;;;;;5042176;27;78239;-71
2021/05/11 16:53:02;;;;;;;;;;;21.90;27.50;;;;;;5055460;27;77128;-72
2021/05/11 16:55:28;;;;;;;;;;;22.90;26.90;;;;;;5071868;27;75598;-72
2021/05/11 16:57:57;;;;;;;;;;;23.40;26.40;;;;;;5054620;27;78786;-70
2021/05/11 17:00:23;;;;;;;;;;;23.40;26.10;;;;;;5054678;27;77815;-72
2021/05/11 17:02:50;;;;;;;;;;;23.10;26.30;;;;;;5055109;27;77270;-70
2021/05/11 17:05:19;;;;;;;;;;;22.90;26.80;;;;;;5072578;27;75145;-72
2021/05/11 17:07:45;;;;;;;;;;;22.80;26.60;;;;;;5072025;27;75802;-69
2021/05/11 17:10:11;;;;;;;;;;;22.30;27.30;;;;;;5073613;27;75167;-70
2021/05/11 17:12:37;;;;;;;;;;;22.00;27.70;;;;;;5055250;27;78825;-71
2021/05/11 17:15:03;;;;;;;;;;;21.70;28.10;;;;;;5054660;27;76342;-70
2021/05/11 17:17:29;;;;;;;;;;;21.20;28.50;;;;;;5052448;27;78471;-71
2021/05/11 17:19:55;;;;;;;;;;;20.90;29.00;;;;;;5052888;27;76281;-70
2021/05/11 17:22:21;;;;;;;;;;;21.00;29.30;;;;;;5074023;27;75330;-69
2021/05/11 17:24:46;;;;;;;;;;;21.30;29.20;;;;;;5073232;27;75024;-70
2021/05/11 17:27:12;;;;;;;;;;;21.30;29.00;;;;;;5072616;27;75567;-70
2021/05/11 17:29:38;;;;;;;;;;;21.20;28.90;;;;;;5073480;27;75041;-69
2021/05/11 17:32:06;;;;;;;;;;;21.10;28.90;;;;;;5073240;27;75122;-69
2021/05/11 17:34:31;;;;;;;;;;;21.00;29.30;;;;;;5054402;27;77270;-72
2021/05/11 17:36:57;;;;;;;;;;;20.80;29.40;;;;;;5054633;27;76650;-69
2021/05/11 17:39:23;;;;;;;;;;;20.70;29.70;;;;;;5053782;27;75335;-69
2021/05/11 17:41:49;;;;;;;;;;;21.20;29.20;;;;;;5054579;27;77861;-72
2021/05/11 17:44:14;;;;;;;;;;;22.80;28.10;;;;;;5072882;27;75145;-72
2021/05/11 17:46:40;;;;;;;;;;;24.70;26.00;;;;;;5072951;27;75070;-71
2021/05/11 17:49:06;;;;;;;;;;;25.40;24.90;;;;;;5073540;27;75349;-72
2021/05/11 17:51:32;;;;;;;;;;;24.80;25.50;;;;;;5072236;27;75206;-75
2021/05/11 17:53:58;;;;;;;;;;;24.20;26.00;;;;;;5073069;27;74652;-70
2021/05/11 17:56:29;;;;;;;;;;;23.30;27.00;;;;;;5072834;27;75223;-71
2021/05/11 17:58:55;;;;;;;;;;;23.20;27.20;;;;;;5073391;27;75682;-69
2021/05/11 18:01:20;;;;;;;;;;;23.20;27.20;;;;;;5054238;27;74719;-70
2021/05/11 18:03:48;;;;;;;;;;;23.00;27.00;;;;;;5054310;27;76920;-72
2021/05/11 18:06:13;;;;;;;;;;;23.60;26.60;;;;;;5053774;27;77370;-70
2021/05/11 18:08:40;;;;;;;;;;;24.20;26.20;;;;;;5072877;27;74704;-69
2021/05/11 18:11:05;;;;;;;;;;;24.70;25.70;;;;;;5049816;27;76748;-69
2021/05/11 18:13:32;;;;;;;;;;;24.80;25.60;;;;;;5071727;27;75283;-70
2021/05/11 18:15:58;;;;;;;;;;;24.30;25.90;;;;;;5072608;27;74734;-70
2021/05/11 18:18:24;;;;;;;;;;;23.90;26.30;;;;;;5051653;27;78203;-73
2021/05/11 18:20:50;;;;;;;;;;;23.60;26.50;;;;;;5072495;27;75182;-71
2021/05/11 18:23:16;;;;;;;;;;;23.50;27.00;;;;;;5072468;27;74943;-72
2021/05/11 18:25:42;;;;;;;;;;;23.00;28.10;;;;;;5053494;27;77942;-70
2021/05/11 18:28:07;;;;;;;;;;;22.60;28.30;;;;;;5053800;27;77754;-72
2021/05/11 18:30:33;;;;;;;;;;;22.20;28.60;;;;;;5053641;27;76496;-71
2021/05/11 18:32:59;;;;;;;;;;;21.40;29.70;;;;;;5053723;27;77004;-70
2021/05/11 18:35:28;;;;;;;;;;;20.80;30.60;;;;;;5053567;27;77903;-70
2021/05/11 18:38:03;;;;;;;;;;;20.30;31.30;;;;;;5071177;27;75849;-71